sensor_id;sensor_type;location;lat;lon;timestamp;P1;durP1;ratioP1;P2;durP2;ratioP2
37205;SDS011;23099;42.636;23.198;2023-05-23T00:00:07;5.95;;;2.28;;
37205;SDS011;23099;42.636;23.198;2023-05-23T00:02:35;5.97;;;2.50;;
37205;SDS011;23099;42.636;23.198;2023-05-23T00:05:03;6.32;;;1.90;;
37205;SDS011;23099;42.636;23.198;2023-05-23T00:07:31;8.93;;;1.90;;
37205;SDS011;23099;42.636;23.198;2023-05-23T00:09:58;6.25;;;1.95;;
37205;SDS011;23099;42.636;23.198;2023-05-23T00:12:24;8.57;;;2.13;;
37205;SDS011;23099;42.636;23.198;2023-05-23T00:14:51;7.68;;;2.58;;
37205;SDS011;23099;42.636;23.198;2023-05-23T00:17:19;6.82;;;2.25;;
37205;SDS011;23099;42.636;23.198;2023-05-23T00:19:49;10.05;;;5.07;;
37205;SDS011;23099;42.636;23.198;2023-05-23T00:22:16;12.37;;;4.70;;
37205;SDS011;23099;42.636;23.198;2023-05-23T00:24:43;14.35;;;5.80;;
37205;SDS011;23099;42.636;23.198;2023-05-23T00:27:10;9.90;;;5.03;;
37205;SDS011;23099;42.636;23.198;2023-05-23T00:29:37;11.30;;;5.15;;
37205;SDS011;23099;42.636;23.198;2023-05-23T00:32:03;10.93;;;5.10;;
37205;SDS011;23099;42.636;23.198;2023-05-23T00:34:31;10.30;;;3.90;;
37205;SDS011;23099;42.636;23.198;2023-05-23T00:37:00;7.78;;;3.17;;
37205;SDS011;23099;42.636;23.198;2023-05-23T00:39:27;9.73;;;2.80;;
37205;SDS011;23099;42.636;23.198;2023-05-23T00:41:53;6.47;;;2.00;;
37205;SDS011;23099;42.636;23.198;2023-05-23T00:44:21;7.63;;;1.70;;
37205;SDS011;23099;42.636;23.198;2023-05-23T00:46:48;5.60;;;1.85;;
37205;SDS011;23099;42.636;23.198;2023-05-23T00:49:18;10.18;;;1.77;;
37205;SDS011;23099;42.636;23.198;2023-05-23T00:51:46;8.32;;;1.83;;
37205;SDS011;23099;42.636;23.198;2023-05-23T00:54:14;5.78;;;2.55;;
37205;SDS011;23099;42.636;23.198;2023-05-23T00:56:42;6.78;;;2.22;;
37205;SDS011;23099;42.636;23.198;2023-05-23T00:59:09;15.02;;;3.28;;
37205;SDS011;23099;42.636;23.198;2023-05-23T01:01:37;14.25;;;3.60;;
37205;SDS011;23099;42.636;23.198;2023-05-23T01:04:04;9.07;;;2.95;;
37205;SDS011;23099;42.636;23.198;2023-05-23T01:06:31;5.90;;;2.40;;
37205;SDS011;23099;42.636;23.198;2023-05-23T01:09:00;10.15;;;1.75;;
37205;SDS011;23099;42.636;23.198;2023-05-23T01:11:28;4.43;;;1.70;;
37205;SDS011;23099;42.636;23.198;2023-05-23T01:14:02;4.53;;;1.70;;
37205;SDS011;23099;42.636;23.198;2023-05-23T01:16:37;6.07;;;2.00;;
37205;SDS011;23099;42.636;23.198;2023-05-23T01:19:16;9.37;;;2.00;;
37205;SDS011;23099;42.636;23.198;2023-05-23T01:22:04;3.90;;;1.73;;
37205;SDS011;23099;42.636;23.198;2023-05-23T01:24:40;6.03;;;1.70;;
37205;SDS011;23099;42.636;23.198;2023-05-23T01:27:22;5.15;;;2.00;;
37205;SDS011;23099;42.636;23.198;2023-05-23T01:29:57;6.75;;;2.03;;
37205;SDS011;23099;42.636;23.198;2023-05-23T01:32:27;6.13;;;1.70;;
37205;SDS011;23099;42.636;23.198;2023-05-23T01:34:54;5.38;;;1.77;;
37205;SDS011;23099;42.636;23.198;2023-05-23T01:37:22;4.28;;;1.70;;
37205;SDS011;23099;42.636;23.198;2023-05-23T01:39:49;7.05;;;2.13;;
37205;SDS011;23099;42.636;23.198;2023-05-23T01:42:15;7.85;;;3.58;;
37205;SDS011;23099;42.636;23.198;2023-05-23T01:44:43;9.13;;;4.00;;
37205;SDS011;23099;42.636;23.198;2023-05-23T01:47:12;10.65;;;3.85;;
37205;SDS011;23099;42.636;23.198;2023-05-23T01:49:40;8.57;;;3.80;;
37205;SDS011;23099;42.636;23.198;2023-05-23T01:52:08;9.57;;;3.65;;
37205;SDS011;23099;42.636;23.198;2023-05-23T01:54:36;7.90;;;2.80;;
37205;SDS011;23099;42.636;23.198;2023-05-23T01:57:06;6.85;;;2.92;;
37205;SDS011;23099;42.636;23.198;2023-05-23T01:59:33;13.55;;;4.10;;
37205;SDS011;23099;42.636;23.198;2023-05-23T02:01:59;12.90;;;5.40;;
37205;SDS011;23099;42.636;23.198;2023-05-23T02:04:28;9.00;;;3.67;;
37205;SDS011;23099;42.636;23.198;2023-05-23T02:06:55;10.57;;;2.97;;
37205;SDS011;23099;42.636;23.198;2023-05-23T02:09:22;6.45;;;1.52;;
37205;SDS011;23099;42.636;23.198;2023-05-23T02:11:49;9.00;;;1.70;;
37205;SDS011;23099;42.636;23.198;2023-05-23T02:14:15;8.52;;;1.27;;
37205;SDS011;23099;42.636;23.198;2023-05-23T02:16:42;6.80;;;2.00;;
37205;SDS011;23099;42.636;23.198;2023-05-23T02:19:09;6.35;;;1.58;;
37205;SDS011;23099;42.636;23.198;2023-05-23T02:21:38;7.38;;;1.90;;
37205;SDS011;23099;42.636;23.198;2023-05-23T02:24:04;5.75;;;1.75;;
37205;SDS011;23099;42.636;23.198;2023-05-23T02:26:31;4.78;;;1.20;;
37205;SDS011;23099;42.636;23.198;2023-05-23T02:28:58;5.53;;;1.70;;
37205;SDS011;23099;42.636;23.198;2023-05-23T02:31:25;6.75;;;1.80;;
37205;SDS011;23099;42.636;23.198;2023-05-23T02:33:52;6.95;;;3.03;;
37205;SDS011;23099;42.636;23.198;2023-05-23T02:36:18;8.18;;;3.47;;
37205;SDS011;23099;42.636;23.198;2023-05-23T02:38:47;11.05;;;2.30;;
37205;SDS011;23099;42.636;23.198;2023-05-23T02:41:13;5.47;;;1.60;;
37205;SDS011;23099;42.636;23.198;2023-05-23T02:43:40;4.78;;;1.95;;
37205;SDS011;23099;42.636;23.198;2023-05-23T02:46:07;6.75;;;1.95;;
37205;SDS011;23099;42.636;23.198;2023-05-23T02:48:34;7.70;;;3.25;;
37205;SDS011;23099;42.636;23.198;2023-05-23T02:51:00;7.88;;;3.78;;
37205;SDS011;23099;42.636;23.198;2023-05-23T02:53:27;11.82;;;3.63;;
37205;SDS011;23099;42.636;23.198;2023-05-23T02:55:55;10.18;;;4.20;;
37205;SDS011;23099;42.636;23.198;2023-05-23T02:58:22;20.10;;;5.15;;
37205;SDS011;23099;42.636;23.198;2023-05-23T03:00:49;10.77;;;4.47;;
37205;SDS011;23099;42.636;23.198;2023-05-23T03:03:16;8.00;;;2.88;;
37205;SDS011;23099;42.636;23.198;2023-05-23T03:05:42;7.95;;;3.85;;
37205;SDS011;23099;42.636;23.198;2023-05-23T03:08:09;8.88;;;4.30;;
37205;SDS011;23099;42.636;23.198;2023-05-23T03:10:36;8.88;;;3.70;;
37205;SDS011;23099;42.636;23.198;2023-05-23T03:13:04;6.65;;;2.22;;
37205;SDS011;23099;42.636;23.198;2023-05-23T03:15:30;6.18;;;2.70;;
37205;SDS011;23099;42.636;23.198;2023-05-23T03:17:57;10.48;;;4.10;;
37205;SDS011;23099;42.636;23.198;2023-05-23T03:20:24;14.75;;;7.45;;
37205;SDS011;23099;42.636;23.198;2023-05-23T03:22:50;14.85;;;5.25;;
37205;SDS011;23099;42.636;23.198;2023-05-23T03:25:17;9.98;;;4.05;;
37205;SDS011;23099;42.636;23.198;2023-05-23T03:27:44;23.38;;;5.68;;
37205;SDS011;23099;42.636;23.198;2023-05-23T03:30:12;11.93;;;5.38;;
37205;SDS011;23099;42.636;23.198;2023-05-23T03:32:39;11.20;;;4.68;;
37205;SDS011;23099;42.636;23.198;2023-05-23T03:35:06;16.58;;;8.25;;
37205;SDS011;23099;42.636;23.198;2023-05-23T03:37:33;16.83;;;6.03;;
37205;SDS011;23099;42.636;23.198;2023-05-23T03:40:00;13.52;;;6.47;;
37205;SDS011;23099;42.636;23.198;2023-05-23T03:42:27;13.80;;;7.07;;
37205;SDS011;23099;42.636;23.198;2023-05-23T03:44:54;9.40;;;4.55;;
37205;SDS011;23099;42.636;23.198;2023-05-23T03:47:23;8.27;;;2.83;;
37205;SDS011;23099;42.636;23.198;2023-05-23T03:49:49;7.53;;;3.58;;
37205;SDS011;23099;42.636;23.198;2023-05-23T03:52:16;7.05;;;2.85;;
37205;SDS011;23099;42.636;23.198;2023-05-23T03:54:43;7.13;;;3.08;;
37205;SDS011;23099;42.636;23.198;2023-05-23T03:57:10;8.45;;;3.85;;
37205;SDS011;23099;42.636;23.198;2023-05-23T03:59:36;8.05;;;3.47;;
37205;SDS011;23099;42.636;23.198;2023-05-23T04:02:03;7.50;;;3.03;;
37205;SDS011;23099;42.636;23.198;2023-05-23T04:04:32;10.18;;;4.38;;
37205;SDS011;23099;42.636;23.198;2023-05-23T04:06:59;11.60;;;4.75;;
37205;SDS011;23099;42.636;23.198;2023-05-23T04:09:26;9.50;;;4.80;;
37205;SDS011;23099;42.636;23.198;2023-05-23T04:11:53;8.70;;;4.60;;
37205;SDS011;23099;42.636;23.198;2023-05-23T04:14:20;10.50;;;5.55;;
37205;SDS011;23099;42.636;23.198;2023-05-23T04:16:46;10.57;;;5.13;;
37205;SDS011;23099;42.636;23.198;2023-05-23T04:19:13;12.05;;;4.55;;
37205;SDS011;23099;42.636;23.198;2023-05-23T04:21:41;14.07;;;7.07;;
37205;SDS011;23099;42.636;23.198;2023-05-23T04:24:08;10.45;;;3.80;;
37205;SDS011;23099;42.636;23.198;2023-05-23T04:26:35;10.90;;;3.55;;
37205;SDS011;23099;42.636;23.198;2023-05-23T04:29:01;7.72;;;3.47;;
37205;SDS011;23099;42.636;23.198;2023-05-23T04:31:30;12.20;;;5.00;;
37205;SDS011;23099;42.636;23.198;2023-05-23T04:33:57;10.48;;;5.55;;
37205;SDS011;23099;42.636;23.198;2023-05-23T04:36:24;10.75;;;3.88;;
37205;SDS011;23099;42.636;23.198;2023-05-23T04:38:52;10.40;;;4.20;;
37205;SDS011;23099;42.636;23.198;2023-05-23T04:41:19;7.85;;;4.05;;
37205;SDS011;23099;42.636;23.198;2023-05-23T04:43:47;10.60;;;4.88;;
37205;SDS011;23099;42.636;23.198;2023-05-23T04:46:18;9.82;;;4.90;;
37205;SDS011;23099;42.636;23.198;2023-05-23T04:48:50;14.20;;;6.10;;
37205;SDS011;23099;42.636;23.198;2023-05-23T04:51:17;12.05;;;5.88;;
37205;SDS011;23099;42.636;23.198;2023-05-23T04:53:45;13.25;;;6.40;;
37205;SDS011;23099;42.636;23.198;2023-05-23T04:56:13;10.75;;;6.28;;
37205;SDS011;23099;42.636;23.198;2023-05-23T04:58:42;13.20;;;6.50;;
37205;SDS011;23099;42.636;23.198;2023-05-23T05:01:09;11.70;;;6.20;;
37205;SDS011;23099;42.636;23.198;2023-05-23T05:03:36;12.00;;;5.80;;
37205;SDS011;23099;42.636;23.198;2023-05-23T05:06:03;10.82;;;5.13;;
37205;SDS011;23099;42.636;23.198;2023-05-23T05:08:30;8.85;;;4.82;;
37205;SDS011;23099;42.636;23.198;2023-05-23T05:10:57;8.77;;;4.13;;
37205;SDS011;23099;42.636;23.198;2023-05-23T05:13:25;10.68;;;5.80;;
37205;SDS011;23099;42.636;23.198;2023-05-23T05:15:52;11.20;;;6.50;;
37205;SDS011;23099;42.636;23.198;2023-05-23T05:18:18;15.50;;;6.85;;
37205;SDS011;23099;42.636;23.198;2023-05-23T05:20:45;15.15;;;8.68;;
37205;SDS011;23099;42.636;23.198;2023-05-23T05:23:12;15.05;;;8.48;;
37205;SDS011;23099;42.636;23.198;2023-05-23T05:25:38;13.40;;;8.13;;
37205;SDS011;23099;42.636;23.198;2023-05-23T05:28:05;15.05;;;7.47;;
37205;SDS011;23099;42.636;23.198;2023-05-23T05:30:33;14.20;;;7.20;;
37205;SDS011;23099;42.636;23.198;2023-05-23T05:33:01;11.98;;;7.05;;
37205;SDS011;23099;42.636;23.198;2023-05-23T05:35:29;13.85;;;7.75;;
37205;SDS011;23099;42.636;23.198;2023-05-23T05:37:56;13.07;;;7.35;;
37205;SDS011;23099;42.636;23.198;2023-05-23T05:40:23;11.77;;;6.18;;
37205;SDS011;23099;42.636;23.198;2023-05-23T05:42:50;10.77;;;6.47;;
37205;SDS011;23099;42.636;23.198;2023-05-23T05:45:17;10.40;;;5.70;;
37205;SDS011;23099;42.636;23.198;2023-05-23T05:47:45;11.07;;;6.47;;
37205;SDS011;23099;42.636;23.198;2023-05-23T05:50:16;11.10;;;6.53;;
37205;SDS011;23099;42.636;23.198;2023-05-23T05:55:11;11.88;;;6.82;;
37205;SDS011;23099;42.636;23.198;2023-05-23T05:57:37;15.32;;;8.35;;
37205;SDS011;23099;42.636;23.198;2023-05-23T06:00:05;15.27;;;9.75;;
37205;SDS011;23099;42.636;23.198;2023-05-23T06:02:36;19.70;;;9.43;;
37205;SDS011;23099;42.636;23.198;2023-05-23T06:05:05;17.38;;;11.27;;
37205;SDS011;23099;42.636;23.198;2023-05-23T06:07:33;15.38;;;9.57;;
37205;SDS011;23099;42.636;23.198;2023-05-23T06:10:00;13.93;;;8.65;;
37205;SDS011;23099;42.636;23.198;2023-05-23T06:12:26;14.90;;;8.57;;
37205;SDS011;23099;42.636;23.198;2023-05-23T06:14:53;15.70;;;9.00;;
37205;SDS011;23099;42.636;23.198;2023-05-23T06:17:20;18.27;;;8.50;;
37205;SDS011;23099;42.636;23.198;2023-05-23T06:19:46;13.80;;;7.82;;
37205;SDS011;23099;42.636;23.198;2023-05-23T06:22:14;14.68;;;7.13;;
37205;SDS011;23099;42.636;23.198;2023-05-23T06:24:41;11.68;;;6.53;;
37205;SDS011;23099;42.636;23.198;2023-05-23T06:27:08;12.32;;;7.30;;
37205;SDS011;23099;42.636;23.198;2023-05-23T06:29:34;13.57;;;7.97;;
37205;SDS011;23099;42.636;23.198;2023-05-23T06:32:01;12.27;;;6.68;;
37205;SDS011;23099;42.636;23.198;2023-05-23T06:34:28;10.25;;;6.00;;
37205;SDS011;23099;42.636;23.198;2023-05-23T06:36:55;12.07;;;6.10;;
37205;SDS011;23099;42.636;23.198;2023-05-23T06:39:23;12.27;;;6.20;;
37205;SDS011;23099;42.636;23.198;2023-05-23T06:41:49;9.82;;;5.88;;
37205;SDS011;23099;42.636;23.198;2023-05-23T06:44:16;10.07;;;5.72;;
37205;SDS011;23099;42.636;23.198;2023-05-23T06:46:44;14.07;;;5.82;;
37205;SDS011;23099;42.636;23.198;2023-05-23T06:49:11;10.93;;;5.95;;
37205;SDS011;23099;42.636;23.198;2023-05-23T06:51:37;13.05;;;6.75;;
37205;SDS011;23099;42.636;23.198;2023-05-23T06:54:04;11.25;;;5.75;;
37205;SDS011;23099;42.636;23.198;2023-05-23T06:56:32;8.70;;;5.50;;
37205;SDS011;23099;42.636;23.198;2023-05-23T06:58:59;9.48;;;4.95;;
37205;SDS011;23099;42.636;23.198;2023-05-23T07:01:25;10.45;;;5.22;;
37205;SDS011;23099;42.636;23.198;2023-05-23T07:03:52;10.63;;;5.47;;
37205;SDS011;23099;42.636;23.198;2023-05-23T07:06:19;9.38;;;4.85;;
37205;SDS011;23099;42.636;23.198;2023-05-23T07:08:45;9.35;;;5.07;;
37205;SDS011;23099;42.636;23.198;2023-05-23T07:11:12;13.82;;;5.18;;
37205;SDS011;23099;42.636;23.198;2023-05-23T07:13:40;13.43;;;5.18;;
37205;SDS011;23099;42.636;23.198;2023-05-23T07:16:07;15.13;;;5.68;;
37205;SDS011;23099;42.636;23.198;2023-05-23T07:18:33;11.32;;;5.50;;
37205;SDS011;23099;42.636;23.198;2023-05-23T07:21:00;10.82;;;6.38;;
37205;SDS011;23099;42.636;23.198;2023-05-23T07:23:27;11.57;;;6.20;;
37205;SDS011;23099;42.636;23.198;2023-05-23T07:25:58;13.65;;;6.90;;
37205;SDS011;23099;42.636;23.198;2023-05-23T07:28:25;12.18;;;7.25;;
37205;SDS011;23099;42.636;23.198;2023-05-23T07:30:53;13.25;;;7.72;;
37205;SDS011;23099;42.636;23.198;2023-05-23T07:33:21;17.02;;;10.10;;
37205;SDS011;23099;42.636;23.198;2023-05-23T07:35:48;20.15;;;9.35;;
37205;SDS011;23099;42.636;23.198;2023-05-23T07:38:15;17.23;;;10.88;;
37205;SDS011;23099;42.636;23.198;2023-05-23T07:40:41;16.95;;;10.15;;
37205;SDS011;23099;42.636;23.198;2023-05-23T07:43:08;18.42;;;9.45;;
37205;SDS011;23099;42.636;23.198;2023-05-23T07:45:35;19.00;;;10.30;;
37205;SDS011;23099;42.636;23.198;2023-05-23T07:48:03;20.30;;;10.65;;
37205;SDS011;23099;42.636;23.198;2023-05-23T07:50:29;19.90;;;10.00;;
37205;SDS011;23099;42.636;23.198;2023-05-23T07:52:56;18.08;;;10.30;;
37205;SDS011;23099;42.636;23.198;2023-05-23T07:55:23;19.15;;;11.15;;
37205;SDS011;23099;42.636;23.198;2023-05-23T07:57:50;17.98;;;11.25;;
37205;SDS011;23099;42.636;23.198;2023-05-23T08:00:19;20.52;;;11.73;;
37205;SDS011;23099;42.636;23.198;2023-05-23T08:02:46;21.35;;;11.80;;
37205;SDS011;23099;42.636;23.198;2023-05-23T08:05:15;17.23;;;10.68;;
37205;SDS011;23099;42.636;23.198;2023-05-23T08:07:43;17.15;;;10.80;;
37205;SDS011;23099;42.636;23.198;2023-05-23T08:10:10;19.05;;;10.07;;
37205;SDS011;23099;42.636;23.198;2023-05-23T08:12:36;17.80;;;9.32;;
37205;SDS011;23099;42.636;23.198;2023-05-23T08:15:03;17.17;;;8.95;;
37205;SDS011;23099;42.636;23.198;2023-05-23T08:17:31;17.60;;;9.27;;
37205;SDS011;23099;42.636;23.198;2023-05-23T08:19:57;18.58;;;9.02;;
37205;SDS011;23099;42.636;23.198;2023-05-23T08:22:26;18.33;;;9.50;;
37205;SDS011;23099;42.636;23.198;2023-05-23T08:24:53;17.15;;;9.00;;
37205;SDS011;23099;42.636;23.198;2023-05-23T08:27:20;20.10;;;10.23;;
37205;SDS011;23099;42.636;23.198;2023-05-23T08:29:47;21.38;;;11.77;;
37205;SDS011;23099;42.636;23.198;2023-05-23T08:32:13;17.00;;;10.35;;
37205;SDS011;23099;42.636;23.198;2023-05-23T08:34:40;20.73;;;10.90;;
37205;SDS011;23099;42.636;23.198;2023-05-23T08:37:07;19.77;;;10.68;;
37205;SDS011;23099;42.636;23.198;2023-05-23T08:39:35;20.23;;;11.00;;
37205;SDS011;23099;42.636;23.198;2023-05-23T08:42:01;17.13;;;9.18;;
37205;SDS011;23099;42.636;23.198;2023-05-23T08:44:28;16.52;;;9.48;;
37205;SDS011;23099;42.636;23.198;2023-05-23T08:46:55;21.35;;;10.60;;
37205;SDS011;23099;42.636;23.198;2023-05-23T08:49:29;18.25;;;11.55;;
37205;SDS011;23099;42.636;23.198;2023-05-23T08:51:56;21.23;;;11.18;;
37205;SDS011;23099;42.636;23.198;2023-05-23T08:54:27;19.05;;;10.80;;
37205;SDS011;23099;42.636;23.198;2023-05-23T08:56:55;21.50;;;9.63;;
37205;SDS011;23099;42.636;23.198;2023-05-23T08:59:22;19.75;;;9.13;;
37205;SDS011;23099;42.636;23.198;2023-05-23T09:01:51;18.85;;;10.32;;
37205;SDS011;23099;42.636;23.198;2023-05-23T09:04:21;17.10;;;8.68;;
37205;SDS011;23099;42.636;23.198;2023-05-23T09:06:47;18.67;;;9.77;;
37205;SDS011;23099;42.636;23.198;2023-05-23T09:09:14;22.77;;;10.15;;
37205;SDS011;23099;42.636;23.198;2023-05-23T09:11:41;20.73;;;9.57;;
37205;SDS011;23099;42.636;23.198;2023-05-23T09:14:11;18.33;;;9.13;;
37205;SDS011;23099;42.636;23.198;2023-05-23T09:16:39;18.05;;;9.85;;
37205;SDS011;23099;42.636;23.198;2023-05-23T09:19:09;12.43;;;5.72;;
37205;SDS011;23099;42.636;23.198;2023-05-23T09:21:38;15.70;;;7.18;;
37205;SDS011;23099;42.636;23.198;2023-05-23T09:24:08;13.75;;;5.55;;
37205;SDS011;23099;42.636;23.198;2023-05-23T09:26:34;14.80;;;4.85;;
37205;SDS011;23099;42.636;23.198;2023-05-23T09:29:03;9.98;;;4.57;;
37205;SDS011;23099;42.636;23.198;2023-05-23T09:31:32;14.07;;;5.22;;
37205;SDS011;23099;42.636;23.198;2023-05-23T09:33:59;12.82;;;4.75;;
37205;SDS011;23099;42.636;23.198;2023-05-23T09:36:26;8.48;;;3.33;;
37205;SDS011;23099;42.636;23.198;2023-05-23T09:38:54;8.20;;;3.25;;
37205;SDS011;23099;42.636;23.198;2023-05-23T09:41:21;6.95;;;2.70;;
37205;SDS011;23099;42.636;23.198;2023-05-23T09:43:49;13.13;;;3.15;;
37205;SDS011;23099;42.636;23.198;2023-05-23T09:46:16;10.45;;;3.20;;
37205;SDS011;23099;42.636;23.198;2023-05-23T09:48:46;6.37;;;2.33;;
37205;SDS011;23099;42.636;23.198;2023-05-23T09:51:13;6.78;;;2.58;;
37205;SDS011;23099;42.636;23.198;2023-05-23T09:53:40;6.90;;;2.30;;
37205;SDS011;23099;42.636;23.198;2023-05-23T09:56:07;7.45;;;2.13;;
37205;SDS011;23099;42.636;23.198;2023-05-23T09:58:36;7.60;;;1.98;;
37205;SDS011;23099;42.636;23.198;2023-05-23T10:01:04;5.32;;;1.88;;
37205;SDS011;23099;42.636;23.198;2023-05-23T10:03:36;10.80;;;1.67;;
37205;SDS011;23099;42.636;23.198;2023-05-23T10:06:14;8.10;;;1.73;;
37205;SDS011;23099;42.636;23.198;2023-05-23T10:08:49;5.68;;;1.92;;
37205;SDS011;23099;42.636;23.198;2023-05-23T10:11:35;7.35;;;1.92;;
37205;SDS011;23099;42.636;23.198;2023-05-23T10:14:34;9.18;;;2.00;;
37205;SDS011;23099;42.636;23.198;2023-05-23T10:17:06;7.50;;;1.88;;
37205;SDS011;23099;42.636;23.198;2023-05-23T10:19:38;5.40;;;1.70;;
37205;SDS011;23099;42.636;23.198;2023-05-23T10:22:11;11.80;;;1.90;;
37205;SDS011;23099;42.636;23.198;2023-05-23T10:24:39;5.57;;;1.80;;
37205;SDS011;23099;42.636;23.198;2023-05-23T10:27:07;8.03;;;2.17;;
37205;SDS011;23099;42.636;23.198;2023-05-23T10:29:34;7.13;;;1.58;;
37205;SDS011;23099;42.636;23.198;2023-05-23T10:32:01;6.30;;;1.35;;
37205;SDS011;23099;42.636;23.198;2023-05-23T10:34:31;5.38;;;1.95;;
37205;SDS011;23099;42.636;23.198;2023-05-23T10:37:03;10.73;;;2.05;;
37205;SDS011;23099;42.636;23.198;2023-05-23T10:39:34;4.78;;;1.60;;
37205;SDS011;23099;42.636;23.198;2023-05-23T10:42:10;6.20;;;1.73;;
37205;SDS011;23099;42.636;23.198;2023-05-23T10:44:40;5.25;;;1.40;;
37205;SDS011;23099;42.636;23.198;2023-05-23T10:47:07;6.45;;;1.67;;
37205;SDS011;23099;42.636;23.198;2023-05-23T10:49:37;7.22;;;1.65;;
37205;SDS011;23099;42.636;23.198;2023-05-23T10:52:05;6.22;;;1.90;;
37205;SDS011;23099;42.636;23.198;2023-05-23T10:54:37;7.63;;;1.90;;
37205;SDS011;23099;42.636;23.198;2023-05-23T10:57:08;8.27;;;1.75;;
37205;SDS011;23099;42.636;23.198;2023-05-23T11:02:02;6.20;;;1.73;;
37205;SDS011;23099;42.636;23.198;2023-05-23T11:04:34;6.38;;;1.90;;
37205;SDS011;23099;42.636;23.198;2023-05-23T11:07:01;4.82;;;1.60;;
37205;SDS011;23099;42.636;23.198;2023-05-23T11:09:27;10.15;;;1.50;;
37205;SDS011;23099;42.636;23.198;2023-05-23T11:11:59;6.53;;;1.80;;
37205;SDS011;23099;42.636;23.198;2023-05-23T11:14:32;6.45;;;1.52;;
37205;SDS011;23099;42.636;23.198;2023-05-23T11:17:17;5.93;;;2.20;;
37205;SDS011;23099;42.636;23.198;2023-05-23T11:19:55;6.05;;;1.65;;
37205;SDS011;23099;42.636;23.198;2023-05-23T11:22:26;5.78;;;1.73;;
37205;SDS011;23099;42.636;23.198;2023-05-23T11:24:54;9.52;;;1.92;;
37205;SDS011;23099;42.636;23.198;2023-05-23T11:27:26;5.78;;;1.60;;
37205;SDS011;23099;42.636;23.198;2023-05-23T11:29:57;5.55;;;2.00;;
37205;SDS011;23099;42.636;23.198;2023-05-23T11:32:26;4.93;;;1.77;;
37205;SDS011;23099;42.636;23.198;2023-05-23T11:34:54;8.80;;;1.77;;
37205;SDS011;23099;42.636;23.198;2023-05-23T11:37:20;4.47;;;1.73;;
37205;SDS011;23099;42.636;23.198;2023-05-23T11:39:48;5.63;;;1.92;;
37205;SDS011;23099;42.636;23.198;2023-05-23T11:42:15;7.25;;;1.83;;
37205;SDS011;23099;42.636;23.198;2023-05-23T11:44:43;5.95;;;1.83;;
37205;SDS011;23099;42.636;23.198;2023-05-23T11:47:14;4.72;;;1.40;;
37205;SDS011;23099;42.636;23.198;2023-05-23T11:49:41;5.65;;;1.88;;
37205;SDS011;23099;42.636;23.198;2023-05-23T11:52:10;6.80;;;1.45;;
37205;SDS011;23099;42.636;23.198;2023-05-23T11:54:38;5.05;;;1.90;;
37205;SDS011;23099;42.636;23.198;2023-05-23T11:57:06;7.57;;;1.60;;
37205;SDS011;23099;42.636;23.198;2023-05-23T11:59:33;8.40;;;1.77;;
37205;SDS011;23099;42.636;23.198;2023-05-23T12:02:02;3.97;;;1.45;;
37205;SDS011;23099;42.636;23.198;2023-05-23T12:04:31;6.70;;;2.25;;
37205;SDS011;23099;42.636;23.198;2023-05-23T12:07:03;4.72;;;1.80;;
37205;SDS011;23099;42.636;23.198;2023-05-23T12:09:31;5.43;;;1.50;;
37205;SDS011;23099;42.636;23.198;2023-05-23T12:11:58;4.00;;;1.48;;
37205;SDS011;23099;42.636;23.198;2023-05-23T12:14:27;5.30;;;1.80;;
37205;SDS011;23099;42.636;23.198;2023-05-23T12:16:54;6.95;;;2.28;;
37205;SDS011;23099;42.636;23.198;2023-05-23T12:19:23;6.38;;;1.80;;
37205;SDS011;23099;42.636;23.198;2023-05-23T12:21:50;6.18;;;1.88;;
37205;SDS011;23099;42.636;23.198;2023-05-23T12:24:17;6.10;;;1.63;;
37205;SDS011;23099;42.636;23.198;2023-05-23T12:26:48;7.47;;;1.92;;
37205;SDS011;23099;42.636;23.198;2023-05-23T12:29:19;5.00;;;1.55;;
37205;SDS011;23099;42.636;23.198;2023-05-23T12:31:47;6.70;;;1.70;;
37205;SDS011;23099;42.636;23.198;2023-05-23T12:34:15;7.40;;;1.75;;
37205;SDS011;23099;42.636;23.198;2023-05-23T12:36:43;5.72;;;1.50;;
37205;SDS011;23099;42.636;23.198;2023-05-23T12:39:13;5.75;;;1.77;;
37205;SDS011;23099;42.636;23.198;2023-05-23T12:41:40;8.30;;;1.60;;
37205;SDS011;23099;42.636;23.198;2023-05-23T12:44:08;7.50;;;1.80;;
37205;SDS011;23099;42.636;23.198;2023-05-23T12:46:35;5.85;;;1.63;;
37205;SDS011;23099;42.636;23.198;2023-05-23T12:49:02;4.45;;;1.70;;
37205;SDS011;23099;42.636;23.198;2023-05-23T12:51:29;4.50;;;1.73;;
37205;SDS011;23099;42.636;23.198;2023-05-23T12:53:57;5.63;;;1.90;;
37205;SDS011;23099;42.636;23.198;2023-05-23T12:56:24;5.47;;;1.67;;
37205;SDS011;23099;42.636;23.198;2023-05-23T12:58:51;4.90;;;1.57;;
37205;SDS011;23099;42.636;23.198;2023-05-23T13:01:18;5.30;;;1.60;;
37205;SDS011;23099;42.636;23.198;2023-05-23T13:03:45;4.75;;;1.80;;
37205;SDS011;23099;42.636;23.198;2023-05-23T13:06:12;4.85;;;1.70;;
37205;SDS011;23099;42.636;23.198;2023-05-23T13:08:39;5.78;;;1.60;;
37205;SDS011;23099;42.636;23.198;2023-05-23T13:11:07;5.88;;;1.83;;
37205;SDS011;23099;42.636;23.198;2023-05-23T13:13:34;7.40;;;2.03;;
37205;SDS011;23099;42.636;23.198;2023-05-23T13:16:00;5.28;;;1.73;;
37205;SDS011;23099;42.636;23.198;2023-05-23T13:18:27;6.07;;;1.70;;
37205;SDS011;23099;42.636;23.198;2023-05-23T13:20:54;7.28;;;1.48;;
37205;SDS011;23099;42.636;23.198;2023-05-23T13:23:20;4.63;;;1.60;;
37205;SDS011;23099;42.636;23.198;2023-05-23T13:25:49;6.55;;;1.48;;
37205;SDS011;23099;42.636;23.198;2023-05-23T13:28:17;8.52;;;1.80;;
37205;SDS011;23099;42.636;23.198;2023-05-23T13:30:44;4.13;;;1.42;;
37205;SDS011;23099;42.636;23.198;2023-05-23T13:33:11;6.50;;;1.67;;
37205;SDS011;23099;42.636;23.198;2023-05-23T13:35:38;7.20;;;1.75;;
37205;SDS011;23099;42.636;23.198;2023-05-23T13:38:05;5.95;;;1.40;;
37205;SDS011;23099;42.636;23.198;2023-05-23T13:40:31;5.38;;;1.40;;
37205;SDS011;23099;42.636;23.198;2023-05-23T13:42:58;4.80;;;1.73;;
37205;SDS011;23099;42.636;23.198;2023-05-23T13:45:26;6.85;;;2.00;;
37205;SDS011;23099;42.636;23.198;2023-05-23T13:47:54;5.90;;;1.70;;
37205;SDS011;23099;42.636;23.198;2023-05-23T13:50:21;5.50;;;1.48;;
37205;SDS011;23099;42.636;23.198;2023-05-23T13:52:48;4.80;;;1.45;;
37205;SDS011;23099;42.636;23.198;2023-05-23T13:55:15;4.50;;;1.50;;
37205;SDS011;23099;42.636;23.198;2023-05-23T13:57:42;4.65;;;1.25;;
37205;SDS011;23099;42.636;23.198;2023-05-23T14:00:09;4.28;;;1.30;;
37205;SDS011;23099;42.636;23.198;2023-05-23T14:02:38;4.32;;;1.17;;
37205;SDS011;23099;42.636;23.198;2023-05-23T14:05:05;4.95;;;1.88;;
37205;SDS011;23099;42.636;23.198;2023-05-23T14:07:32;6.70;;;1.73;;
37205;SDS011;23099;42.636;23.198;2023-05-23T14:09:59;4.75;;;1.63;;
37205;SDS011;23099;42.636;23.198;2023-05-23T14:12:26;7.65;;;1.83;;
37205;SDS011;23099;42.636;23.198;2023-05-23T14:14:52;4.65;;;1.67;;
37205;SDS011;23099;42.636;23.198;2023-05-23T14:17:19;6.68;;;1.80;;
37205;SDS011;23099;42.636;23.198;2023-05-23T14:19:47;6.15;;;1.75;;
37205;SDS011;23099;42.636;23.198;2023-05-23T14:24:40;4.65;;;1.70;;
37205;SDS011;23099;42.636;23.198;2023-05-23T14:27:07;5.55;;;1.60;;
37205;SDS011;23099;42.636;23.198;2023-05-23T14:29:34;7.47;;;1.73;;
37205;SDS011;23099;42.636;23.198;2023-05-23T14:32:01;7.85;;;1.80;;
37205;SDS011;23099;42.636;23.198;2023-05-23T14:34:28;6.97;;;1.85;;
37205;SDS011;23099;42.636;23.198;2023-05-23T14:36:56;5.45;;;1.77;;
37205;SDS011;23099;42.636;23.198;2023-05-23T14:39:24;6.35;;;1.90;;